sensor_id;sensor_type;location;lat;lon;timestamp;P1;durP1;ratioP1;P2;durP2;ratioP2
2542;SDS011;1116;51.502;7.414;2022-12-18T00:01:37;80.20;;;44.60;;
2542;SDS011;1116;51.502;7.414;2022-12-18T00:04:13;80.93;;;45.55;;
2542;SDS011;1116;51.502;7.414;2022-12-18T00:06:46;86.80;;;46.20;;
2542;SDS011;1116;51.502;7.414;2022-12-18T00:09:20;84.85;;;45.42;;
2542;SDS011;1116;51.502;7.414;2022-12-18T00:11:57;77.80;;;43.17;;
2542;SDS011;1116;51.502;7.414;2022-12-18T00:14:42;74.38;;;43.67;;
2542;SDS011;1116;51.502;7.414;2022-12-18T00:17:13;75.28;;;43.08;;
2542;SDS011;1116;51.502;7.414;2022-12-18T00:19:43;77.28;;;44.10;;
2542;SDS011;1116;51.502;7.414;2022-12-18T00:22:17;75.18;;;45.60;;
2542;SDS011;1116;51.502;7.414;2022-12-18T00:24:52;77.40;;;44.38;;
2542;SDS011;1116;51.502;7.414;2022-12-18T00:27:24;76.13;;;43.15;;
2542;SDS011;1116;51.502;7.414;2022-12-18T00:29:55;76.63;;;44.30;;
2542;SDS011;1116;51.502;7.414;2022-12-18T00:32:28;77.88;;;45.67;;
2542;SDS011;1116;51.502;7.414;2022-12-18T00:35:00;75.45;;;44.08;;
2542;SDS011;1116;51.502;7.414;2022-12-18T00:37:33;79.68;;;43.08;;
2542;SDS011;1116;51.502;7.414;2022-12-18T00:40:07;73.07;;;43.22;;
2542;SDS011;1116;51.502;7.414;2022-12-18T00:42:39;76.10;;;43.28;;
2542;SDS011;1116;51.502;7.414;2022-12-18T00:45:22;76.22;;;43.25;;
2542;SDS011;1116;51.502;7.414;2022-12-18T00:47:54;68.28;;;42.05;;
2542;SDS011;1116;51.502;7.414;2022-12-18T00:50:25;92.53;;;48.15;;
2542;SDS011;1116;51.502;7.414;2022-12-18T00:59:04;70.95;;;43.25;;
2542;SDS011;1116;51.502;7.414;2022-12-18T01:01:38;69.35;;;42.75;;
2542;SDS011;1116;51.502;7.414;2022-12-18T01:04:10;78.13;;;43.75;;
2542;SDS011;1116;51.502;7.414;2022-12-18T01:06:40;70.40;;;44.50;;
2542;SDS011;1116;51.502;7.414;2022-12-18T01:09:11;67.60;;;43.35;;
2542;SDS011;1116;51.502;7.414;2022-12-18T01:11:42;76.22;;;44.15;;
2542;SDS011;1116;51.502;7.414;2022-12-18T01:14:18;73.55;;;43.15;;
2542;SDS011;1116;51.502;7.414;2022-12-18T01:16:49;76.40;;;44.13;;
2542;SDS011;1116;51.502;7.414;2022-12-18T01:19:21;73.35;;;43.08;;
2542;SDS011;1116;51.502;7.414;2022-12-18T01:21:51;71.90;;;43.33;;
2542;SDS011;1116;51.502;7.414;2022-12-18T01:24:22;73.18;;;41.53;;
2542;SDS011;1116;51.502;7.414;2022-12-18T01:26:53;70.80;;;41.50;;
2542;SDS011;1116;51.502;7.414;2022-12-18T01:29:27;78.82;;;44.65;;
2542;SDS011;1116;51.502;7.414;2022-12-18T01:31:58;67.20;;;40.45;;
2542;SDS011;1116;51.502;7.414;2022-12-18T01:34:29;73.45;;;41.85;;
2542;SDS011;1116;51.502;7.414;2022-12-18T01:37:02;69.95;;;42.20;;
2542;SDS011;1116;51.502;7.414;2022-12-18T01:39:33;65.55;;;41.83;;
2542;SDS011;1116;51.502;7.414;2022-12-18T01:42:05;74.15;;;40.95;;
2542;SDS011;1116;51.502;7.414;2022-12-18T01:47:32;69.70;;;41.78;;
2542;SDS011;1116;51.502;7.414;2022-12-18T01:50:08;61.10;;;39.13;;
2542;SDS011;1116;51.502;7.414;2022-12-18T01:52:41;73.18;;;41.67;;
2542;SDS011;1116;51.502;7.414;2022-12-18T01:55:14;67.50;;;41.85;;
2542;SDS011;1116;51.502;7.414;2022-12-18T01:57:48;68.88;;;41.97;;
2542;SDS011;1116;51.502;7.414;2022-12-18T02:00:24;72.40;;;41.75;;
2542;SDS011;1116;51.502;7.414;2022-12-18T02:02:56;78.60;;;43.40;;
2542;SDS011;1116;51.502;7.414;2022-12-18T02:05:32;68.25;;;41.38;;
2542;SDS011;1116;51.502;7.414;2022-12-18T02:08:12;65.85;;;40.75;;
2542;SDS011;1116;51.502;7.414;2022-12-18T02:10:56;71.03;;;40.50;;
2542;SDS011;1116;51.502;7.414;2022-12-18T02:13:36;69.70;;;41.17;;
2542;SDS011;1116;51.502;7.414;2022-12-18T02:16:18;66.07;;;39.50;;
2542;SDS011;1116;51.502;7.414;2022-12-18T02:18:56;65.20;;;39.90;;
2542;SDS011;1116;51.502;7.414;2022-12-18T02:21:31;64.07;;;41.30;;
2542;SDS011;1116;51.502;7.414;2022-12-18T02:24:12;75.68;;;41.10;;
2542;SDS011;1116;51.502;7.414;2022-12-18T02:26:51;70.13;;;41.67;;
2542;SDS011;1116;51.502;7.414;2022-12-18T10:02:47;20.42;;;14.48;;
2542;SDS011;1116;51.502;7.414;2022-12-18T10:05:21;20.75;;;15.32;;
2542;SDS011;1116;51.502;7.414;2022-12-18T10:08:05;22.45;;;15.60;;
2542;SDS011;1116;51.502;7.414;2022-12-18T10:10:46;19.75;;;14.68;;
2542;SDS011;1116;51.502;7.414;2022-12-18T10:13:22;18.75;;;14.85;;
2542;SDS011;1116;51.502;7.414;2022-12-18T10:16:02;20.98;;;13.88;;
2542;SDS011;1116;51.502;7.414;2022-12-18T10:21:44;17.50;;;12.48;;
2542;SDS011;1116;51.502;7.414;2022-12-18T10:24:22;18.13;;;12.65;;
2542;SDS011;1116;51.502;7.414;2022-12-18T10:27:06;20.08;;;13.40;;
2542;SDS011;1116;51.502;7.414;2022-12-18T10:29:42;18.42;;;13.68;;
2542;SDS011;1116;51.502;7.414;2022-12-18T10:32:15;18.90;;;13.45;;
2542;SDS011;1116;51.502;7.414;2022-12-18T10:34:52;18.13;;;14.32;;
2542;SDS011;1116;51.502;7.414;2022-12-18T10:37:28;19.92;;;16.33;;
2542;SDS011;1116;51.502;7.414;2022-12-18T10:40:09;20.48;;;16.60;;
2542;SDS011;1116;51.502;7.414;2022-12-18T10:42:55;21.25;;;15.93;;
2542;SDS011;1116;51.502;7.414;2022-12-18T10:45:34;25.27;;;18.65;;
2542;SDS011;1116;51.502;7.414;2022-12-18T10:48:16;24.45;;;16.92;;
2542;SDS011;1116;51.502;7.414;2022-12-18T10:50:51;25.42;;;18.25;;
2542;SDS011;1116;51.502;7.414;2022-12-18T10:53:40;22.27;;;16.70;;
2542;SDS011;1116;51.502;7.414;2022-12-18T10:56:12;23.63;;;16.50;;
2542;SDS011;1116;51.502;7.414;2022-12-18T10:58:54;24.67;;;16.42;;
2542;SDS011;1116;51.502;7.414;2022-12-18T11:01:27;24.17;;;17.10;;
2542;SDS011;1116;51.502;7.414;2022-12-18T11:04:07;24.02;;;17.15;;
2542;SDS011;1116;51.502;7.414;2022-12-18T11:06:53;23.45;;;17.17;;
2542;SDS011;1116;51.502;7.414;2022-12-18T11:12:14;23.48;;;17.08;;
2542;SDS011;1116;51.502;7.414;2022-12-18T11:14:47;20.13;;;15.05;;
2542;SDS011;1116;51.502;7.414;2022-12-18T11:17:21;20.75;;;16.30;;
2542;SDS011;1116;51.502;7.414;2022-12-18T11:19:55;21.45;;;15.05;;
2542;SDS011;1116;51.502;7.414;2022-12-18T11:22:31;20.50;;;15.27;;
2542;SDS011;1116;51.502;7.414;2022-12-18T11:25:04;20.45;;;15.23;;
2542;SDS011;1116;51.502;7.414;2022-12-18T11:27:57;21.23;;;15.80;;
2542;SDS011;1116;51.502;7.414;2022-12-18T11:30:30;19.35;;;14.63;;
2542;SDS011;1116;51.502;7.414;2022-12-18T11:33:04;18.30;;;13.65;;
2542;SDS011;1116;51.502;7.414;2022-12-18T11:35:45;17.85;;;13.35;;
2542;SDS011;1116;51.502;7.414;2022-12-18T11:38:26;15.43;;;10.35;;
2542;SDS011;1116;51.502;7.414;2022-12-18T11:41:02;14.80;;;11.48;;
2542;SDS011;1116;51.502;7.414;2022-12-18T11:43:40;11.00;;;8.65;;
2542;SDS011;1116;51.502;7.414;2022-12-18T11:46:17;11.00;;;8.32;;
2542;SDS011;1116;51.502;7.414;2022-12-18T11:48:56;10.18;;;8.10;;
2542;SDS011;1116;51.502;7.414;2022-12-18T11:51:32;10.63;;;5.78;;
2542;SDS011;1116;51.502;7.414;2022-12-18T11:54:10;7.95;;;5.25;;
2542;SDS011;1116;51.502;7.414;2022-12-18T11:59:50;6.72;;;4.57;;
2542;SDS011;1116;51.502;7.414;2022-12-18T12:02:33;10.63;;;5.28;;
2542;SDS011;1116;51.502;7.414;2022-12-18T12:05:27;10.00;;;6.80;;
2542;SDS011;1116;51.502;7.414;2022-12-18T12:08:12;9.85;;;5.15;;
2542;SDS011;1116;51.502;7.414;2022-12-18T12:10:56;8.90;;;5.10;;
2542;SDS011;1116;51.502;7.414;2022-12-18T12:13:39;11.30;;;6.00;;
2542;SDS011;1116;51.502;7.414;2022-12-18T12:16:17;6.47;;;5.10;;
2542;SDS011;1116;51.502;7.414;2022-12-18T12:18:57;6.22;;;4.72;;
2542;SDS011;1116;51.502;7.414;2022-12-18T12:21:39;7.05;;;4.40;;
2542;SDS011;1116;51.502;7.414;2022-12-18T12:24:18;5.53;;;4.60;;
2542;SDS011;1116;51.502;7.414;2022-12-18T12:27:05;5.45;;;4.05;;
2542;SDS011;1116;51.502;7.414;2022-12-18T12:29:44;7.55;;;4.35;;
2542;SDS011;1116;51.502;7.414;2022-12-18T12:32:22;7.65;;;5.95;;
2542;SDS011;1116;51.502;7.414;2022-12-18T12:35:09;10.38;;;7.53;;
2542;SDS011;1116;51.502;7.414;2022-12-18T12:37:53;14.40;;;11.15;;
2542;SDS011;1116;51.502;7.414;2022-12-18T12:40:34;12.32;;;10.25;;
2542;SDS011;1116;51.502;7.414;2022-12-18T12:43:31;14.68;;;11.52;;
2542;SDS011;1116;51.502;7.414;2022-12-18T12:46:10;15.13;;;12.00;;
2542;SDS011;1116;51.502;7.414;2022-12-18T12:48:42;18.75;;;11.32;;
2542;SDS011;1116;51.502;7.414;2022-12-18T12:51:17;15.75;;;12.45;;
2542;SDS011;1116;51.502;7.414;2022-12-18T12:53:51;13.80;;;11.15;;
2542;SDS011;1116;51.502;7.414;2022-12-18T12:56:24;15.45;;;11.93;;
2542;SDS011;1116;51.502;7.414;2022-12-18T12:59:10;12.40;;;10.32;;
2542;SDS011;1116;51.502;7.414;2022-12-18T13:01:49;13.95;;;10.45;;
2542;SDS011;1116;51.502;7.414;2022-12-18T13:04:31;15.63;;;11.95;;
2542;SDS011;1116;51.502;7.414;2022-12-18T13:07:12;19.60;;;11.60;;
2542;SDS011;1116;51.502;7.414;2022-12-18T13:12:55;15.70;;;11.18;;
2542;SDS011;1116;51.502;7.414;2022-12-18T13:15:32;15.38;;;10.90;;
2542;SDS011;1116;51.502;7.414;2022-12-18T13:18:13;14.27;;;11.52;;
2542;SDS011;1116;51.502;7.414;2022-12-18T13:20:48;17.00;;;12.20;;
2542;SDS011;1116;51.502;7.414;2022-12-18T13:29:02;18.70;;;14.32;;
2542;SDS011;1116;51.502;7.414;2022-12-18T13:34:32;9.70;;;6.40;;
2542;SDS011;1116;51.502;7.414;2022-12-18T13:43:27;6.88;;;4.30;;
2542;SDS011;1116;51.502;7.414;2022-12-18T13:46:05;6.00;;;4.40;;
2542;SDS011;1116;51.502;7.414;2022-12-18T13:48:53;16.90;;;5.88;;
2542;SDS011;1116;51.502;7.414;2022-12-18T13:51:27;9.00;;;4.57;;
2542;SDS011;1116;51.502;7.414;2022-12-18T13:54:01;7.38;;;5.47;;
2542;SDS011;1116;51.502;7.414;2022-12-18T13:56:42;7.57;;;5.45;;
2542;SDS011;1116;51.502;7.414;2022-12-18T13:59:16;9.80;;;7.50;;
2542;SDS011;1116;51.502;7.414;2022-12-18T14:01:52;7.97;;;5.10;;
2542;SDS011;1116;51.502;7.414;2022-12-18T14:04:32;8.68;;;5.82;;
2542;SDS011;1116;51.502;7.414;2022-12-18T14:07:06;15.32;;;12.70;;
2542;SDS011;1116;51.502;7.414;2022-12-18T14:09:43;12.00;;;9.00;;
2542;SDS011;1116;51.502;7.414;2022-12-18T14:12:39;9.60;;;7.47;;
2542;SDS011;1116;51.502;7.414;2022-12-18T14:15:24;10.00;;;6.22;;
2542;SDS011;1116;51.502;7.414;2022-12-18T14:18:01;7.53;;;5.78;;
2542;SDS011;1116;51.502;7.414;2022-12-18T14:20:41;6.47;;;5.00;;
2542;SDS011;1116;51.502;7.414;2022-12-18T14:23:26;8.38;;;5.05;;
2542;SDS011;1116;51.502;7.414;2022-12-18T14:25:59;9.13;;;5.93;;
2542;SDS011;1116;51.502;7.414;2022-12-18T14:28:32;8.00;;;5.68;;
2542;SDS011;1116;51.502;7.414;2022-12-18T14:31:03;7.85;;;5.43;;
2542;SDS011;1116;51.502;7.414;2022-12-18T14:33:34;7.80;;;6.20;;
2542;SDS011;1116;51.502;7.414;2022-12-18T14:36:16;10.27;;;6.40;;
2542;SDS011;1116;51.502;7.414;2022-12-18T14:38:50;8.30;;;6.55;;
2542;SDS011;1116;51.502;7.414;2022-12-18T14:41:21;11.38;;;7.47;;
2542;SDS011;1116;51.502;7.414;2022-12-18T14:43:54;15.63;;;9.60;;
2542;SDS011;1116;51.502;7.414;2022-12-18T14:46:29;12.13;;;7.50;;
2542;SDS011;1116;51.502;7.414;2022-12-18T14:49:04;9.70;;;7.10;;
2542;SDS011;1116;51.502;7.414;2022-12-18T14:51:55;9.98;;;7.22;;
2542;SDS011;1116;51.502;7.414;2022-12-18T14:54:27;11.52;;;7.50;;
2542;SDS011;1116;51.502;7.414;2022-12-18T14:57:00;9.35;;;7.28;;
2542;SDS011;1116;51.502;7.414;2022-12-18T14:59:32;13.75;;;8.45;;
2542;SDS011;1116;51.502;7.414;2022-12-18T15:02:04;13.32;;;9.23;;
2542;SDS011;1116;51.502;7.414;2022-12-18T15:04:45;10.13;;;7.78;;
2542;SDS011;1116;51.502;7.414;2022-12-18T15:07:20;11.18;;;7.68;;
2542;SDS011;1116;51.502;7.414;2022-12-18T15:10:02;14.20;;;8.30;;
2542;SDS011;1116;51.502;7.414;2022-12-18T15:12:40;10.10;;;7.55;;
2542;SDS011;1116;51.502;7.414;2022-12-18T15:18:14;10.75;;;7.95;;
2542;SDS011;1116;51.502;7.414;2022-12-18T15:20:48;11.25;;;8.07;;
2542;SDS011;1116;51.502;7.414;2022-12-18T15:23:23;10.60;;;8.02;;
2542;SDS011;1116;51.502;7.414;2022-12-18T15:25:57;10.65;;;7.35;;
2542;SDS011;1116;51.502;7.414;2022-12-18T15:28:30;12.77;;;8.20;;
2542;SDS011;1116;51.502;7.414;2022-12-18T15:31:20;13.52;;;8.55;;
2542;SDS011;1116;51.502;7.414;2022-12-18T15:34:08;14.05;;;9.27;;
2542;SDS011;1116;51.502;7.414;2022-12-18T15:36:41;13.02;;;9.38;;
2542;SDS011;1116;51.502;7.414;2022-12-18T15:39:16;10.40;;;7.80;;
2542;SDS011;1116;51.502;7.414;2022-12-18T15:41:47;10.73;;;8.00;;
2542;SDS011;1116;51.502;7.414;2022-12-18T15:44:31;12.57;;;9.68;;
2542;SDS011;1116;51.502;7.414;2022-12-18T15:53:15;11.82;;;8.45;;
2542;SDS011;1116;51.502;7.414;2022-12-18T15:55:48;13.65;;;9.13;;
2542;SDS011;1116;51.502;7.414;2022-12-18T15:58:32;13.05;;;9.32;;
2542;SDS011;1116;51.502;7.414;2022-12-18T16:01:05;13.60;;;9.05;;
2542;SDS011;1116;51.502;7.414;2022-12-18T16:03:39;13.20;;;9.60;;
2542;SDS011;1116;51.502;7.414;2022-12-18T16:06:11;13.35;;;9.70;;
2542;SDS011;1116;51.502;7.414;2022-12-18T16:08:42;11.52;;;9.10;;
2542;SDS011;1116;51.502;7.414;2022-12-18T16:11:20;11.43;;;9.30;;
2542;SDS011;1116;51.502;7.414;2022-12-18T16:14:06;14.35;;;10.45;;
2542;SDS011;1116;51.502;7.414;2022-12-18T16:16:42;19.25;;;11.18;;
2542;SDS011;1116;51.502;7.414;2022-12-18T16:19:13;17.23;;;11.73;;
2542;SDS011;1116;51.502;7.414;2022-12-18T16:21:45;16.40;;;11.18;;
2542;SDS011;1116;51.502;7.414;2022-12-18T16:24:19;16.20;;;10.73;;
2542;SDS011;1116;51.502;7.414;2022-12-18T16:26:54;15.10;;;11.35;;
2542;SDS011;1116;51.502;7.414;2022-12-18T16:29:30;21.63;;;13.63;;
2542;SDS011;1116;51.502;7.414;2022-12-18T16:34:50;26.73;;;17.05;;
2542;SDS011;1116;51.502;7.414;2022-12-18T16:37:21;20.08;;;13.43;;
2542;SDS011;1116;51.502;7.414;2022-12-18T16:39:52;16.30;;;11.10;;
2542;SDS011;1116;51.502;7.414;2022-12-18T16:42:25;17.75;;;10.55;;
2542;SDS011;1116;51.502;7.414;2022-12-18T16:44:56;16.13;;;10.80;;
2542;SDS011;1116;51.502;7.414;2022-12-18T16:47:27;19.00;;;11.98;;
2542;SDS011;1116;51.502;7.414;2022-12-18T16:49:58;18.52;;;11.13;;
2542;SDS011;1116;51.502;7.414;2022-12-18T16:52:34;20.23;;;12.98;;
2542;SDS011;1116;51.502;7.414;2022-12-18T16:55:06;18.48;;;12.65;;
2542;SDS011;1116;51.502;7.414;2022-12-18T16:57:40;17.15;;;12.27;;
2542;SDS011;1116;51.502;7.414;2022-12-18T17:00:13;17.38;;;11.23;;
2542;SDS011;1116;51.502;7.414;2022-12-18T17:02:44;17.73;;;12.65;;
2542;SDS011;1116;51.502;7.414;2022-12-18T17:05:16;19.83;;;12.07;;
2542;SDS011;1116;51.502;7.414;2022-12-18T17:07:47;19.13;;;12.48;;
2542;SDS011;1116;51.502;7.414;2022-12-18T17:10:17;16.77;;;12.10;;
2542;SDS011;1116;51.502;7.414;2022-12-18T17:12:52;16.73;;;11.60;;
2542;SDS011;1116;51.502;7.414;2022-12-18T17:15:33;23.95;;;15.75;;
2542;SDS011;1116;51.502;7.414;2022-12-18T17:18:04;20.65;;;13.02;;
2542;SDS011;1116;51.502;7.414;2022-12-18T17:20:35;21.83;;;14.30;;
2542;SDS011;1116;51.502;7.414;2022-12-18T17:23:06;17.55;;;11.63;;
2542;SDS011;1116;51.502;7.414;2022-12-18T17:25:38;18.90;;;12.40;;
2542;SDS011;1116;51.502;7.414;2022-12-18T17:28:12;19.25;;;12.60;;
2542;SDS011;1116;51.502;7.414;2022-12-18T17:30:43;16.73;;;12.07;;
2542;SDS011;1116;51.502;7.414;2022-12-18T17:33:14;21.15;;;13.18;;
2542;SDS011;1116;51.502;7.414;2022-12-18T17:35:45;19.55;;;13.35;;
2542;SDS011;1116;51.502;7.414;2022-12-18T17:38:16;21.83;;;13.38;;
2542;SDS011;1116;51.502;7.414;2022-12-18T17:40:48;23.08;;;14.30;;
2542;SDS011;1116;51.502;7.414;2022-12-18T17:43:21;19.65;;;13.95;;
2542;SDS011;1116;51.502;7.414;2022-12-18T17:45:52;21.25;;;13.98;;
2542;SDS011;1116;51.502;7.414;2022-12-18T17:48:24;20.60;;;15.07;;
2542;SDS011;1116;51.502;7.414;2022-12-18T17:50:58;23.63;;;16.00;;
2542;SDS011;1116;51.502;7.414;2022-12-18T17:53:30;22.20;;;15.95;;
2542;SDS011;1116;51.502;7.414;2022-12-18T17:56:01;24.42;;;17.58;;
2542;SDS011;1116;51.502;7.414;2022-12-18T17:58:37;22.33;;;15.98;;
2542;SDS011;1116;51.502;7.414;2022-12-18T18:01:08;22.83;;;14.88;;
2542;SDS011;1116;51.502;7.414;2022-12-18T18:06:31;20.58;;;15.60;;
2542;SDS011;1116;51.502;7.414;2022-12-18T18:09:05;20.52;;;14.02;;
2542;SDS011;1116;51.502;7.414;2022-12-18T18:11:43;20.60;;;13.57;;
2542;SDS011;1116;51.502;7.414;2022-12-18T18:14:29;22.05;;;14.50;;
2542;SDS011;1116;51.502;7.414;2022-12-18T18:17:02;20.88;;;14.82;;
2542;SDS011;1116;51.502;7.414;2022-12-18T18:19:33;19.83;;;14.55;;
2542;SDS011;1116;51.502;7.414;2022-12-18T18:22:05;20.25;;;14.40;;
2542;SDS011;1116;51.502;7.414;2022-12-18T18:24:37;18.38;;;13.10;;
2542;SDS011;1116;51.502;7.414;2022-12-18T18:27:12;20.10;;;14.05;;
2542;SDS011;1116;51.502;7.414;2022-12-18T18:29:47;17.45;;;13.30;;
2542;SDS011;1116;51.502;7.414;2022-12-18T18:32:19;19.08;;;13.57;;
2542;SDS011;1116;51.502;7.414;2022-12-18T18:34:52;20.05;;;13.48;;
2542;SDS011;1116;51.502;7.414;2022-12-18T18:37:25;22.65;;;14.13;;
2542;SDS011;1116;51.502;7.414;2022-12-18T18:39:57;19.88;;;12.85;;
2542;SDS011;1116;51.502;7.414;2022-12-18T18:42:27;23.95;;;14.00;;
2542;SDS011;1116;51.502;7.414;2022-12-18T18:45:01;20.05;;;14.13;;
2542;SDS011;1116;51.502;7.414;2022-12-18T18:50:24;21.55;;;14.40;;
2542;SDS011;1116;51.502;7.414;2022-12-18T18:52:56;20.55;;;13.50;;
2542;SDS011;1116;51.502;7.414;2022-12-18T18:55:31;21.52;;;13.40;;
2542;SDS011;1116;51.502;7.414;2022-12-18T18:58:05;20.40;;;12.93;;
2542;SDS011;1116;51.502;7.414;2022-12-18T19:00:38;21.80;;;14.52;;
2542;SDS011;1116;51.502;7.414;2022-12-18T19:03:09;18.60;;;13.60;;
2542;SDS011;1116;51.502;7.414;2022-12-18T19:05:40;24.88;;;14.10;;
2542;SDS011;1116;51.502;7.414;2022-12-18T19:08:13;21.00;;;13.82;;
2542;SDS011;1116;51.502;7.414;2022-12-18T19:10:45;22.10;;;14.77;;
2542;SDS011;1116;51.502;7.414;2022-12-18T19:13:24;20.60;;;13.50;;
2542;SDS011;1116;51.502;7.414;2022-12-18T19:16:04;22.73;;;14.93;;
2542;SDS011;1116;51.502;7.414;2022-12-18T19:18:37;23.15;;;14.65;;
2542;SDS011;1116;51.502;7.414;2022-12-18T19:21:11;22.42;;;15.02;;
2542;SDS011;1116;51.502;7.414;2022-12-18T19:29:29;22.10;;;15.20;;
2542;SDS011;1116;51.502;7.414;2022-12-18T19:32:03;20.15;;;14.02;;
2542;SDS011;1116;51.502;7.414;2022-12-18T19:34:34;22.67;;;14.60;;
2542;SDS011;1116;51.502;7.414;2022-12-18T19:37:39;23.27;;;14.75;;
2542;SDS011;1116;51.502;7.414;2022-12-18T19:40:10;22.00;;;14.35;;
2542;SDS011;1116;51.502;7.414;2022-12-18T19:42:41;20.48;;;14.10;;
2542;SDS011;1116;51.502;7.414;2022-12-18T19:45:13;18.88;;;12.90;;
2542;SDS011;1116;51.502;7.414;2022-12-18T19:47:47;25.15;;;15.07;;
2542;SDS011;1116;51.502;7.414;2022-12-18T19:50:18;24.95;;;15.20;;
2542;SDS011;1116;51.502;7.414;2022-12-18T19:52:49;22.05;;;14.60;;
2542;SDS011;1116;51.502;7.414;2022-12-18T19:55:19;20.35;;;13.73;;
2542;SDS011;1116;51.502;7.414;2022-12-18T19:57:50;22.52;;;14.30;;
2542;SDS011;1116;51.502;7.414;2022-12-18T20:00:21;20.52;;;13.85;;
2542;SDS011;1116;51.502;7.414;2022-12-18T20:02:54;20.25;;;13.40;;
2542;SDS011;1116;51.502;7.414;2022-12-18T20:05:39;22.30;;;14.05;;
2542;SDS011;1116;51.502;7.414;2022-12-18T20:08:11;23.98;;;14.88;;
2542;SDS011;1116;51.502;7.414;2022-12-18T20:10:42;22.63;;;14.38;;
2542;SDS011;1116;51.502;7.414;2022-12-18T20:13:15;21.02;;;13.77;;
2542;SDS011;1116;51.502;7.414;2022-12-18T20:15:51;21.70;;;13.85;;
2542;SDS011;1116;51.502;7.414;2022-12-18T20:18:27;22.67;;;13.88;;
2542;SDS011;1116;51.502;7.414;2022-12-18T20:21:02;20.17;;;13.65;;
2542;SDS011;1116;51.502;7.414;2022-12-18T20:23:40;21.17;;;13.15;;
2542;SDS011;1116;51.502;7.414;2022-12-18T20:26:13;23.77;;;14.18;;
2542;SDS011;1116;51.502;7.414;2022-12-18T20:28:48;21.35;;;13.85;;
2542;SDS011;1116;51.502;7.414;2022-12-18T20:31:18;21.35;;;13.75;;
2542;SDS011;1116;51.502;7.414;2022-12-18T20:33:54;24.05;;;14.77;;
2542;SDS011;1116;51.502;7.414;2022-12-18T20:36:30;21.40;;;13.15;;
2542;SDS011;1116;51.502;7.414;2022-12-18T20:39:04;23.35;;;14.40;;
2542;SDS011;1116;51.502;7.414;2022-12-18T20:41:42;24.48;;;14.88;;
2542;SDS011;1116;51.502;7.414;2022-12-18T20:44:15;25.07;;;16.00;;
2542;SDS011;1116;51.502;7.414;2022-12-18T20:46:51;22.35;;;14.30;;
2542;SDS011;1116;51.502;7.414;2022-12-18T20:49:32;22.73;;;14.40;;
2542;SDS011;1116;51.502;7.414;2022-12-18T20:52:05;24.15;;;14.75;;
2542;SDS011;1116;51.502;7.414;2022-12-18T20:54:37;21.20;;;13.95;;
2542;SDS011;1116;51.502;7.414;2022-12-18T20:57:08;21.80;;;14.30;;
2542;SDS011;1116;51.502;7.414;2022-12-18T20:59:39;19.73;;;13.27;;
2542;SDS011;1116;51.502;7.414;2022-12-18T21:02:15;21.60;;;14.77;;
2542;SDS011;1116;51.502;7.414;2022-12-18T21:04:49;19.95;;;13.60;;
2542;SDS011;1116;51.502;7.414;2022-12-18T21:07:20;20.63;;;13.77;;
2542;SDS011;1116;51.502;7.414;2022-12-18T21:09:53;23.25;;;14.38;;
2542;SDS011;1116;51.502;7.414;2022-12-18T21:12:24;22.48;;;14.10;;
2542;SDS011;1116;51.502;7.414;2022-12-18T21:15:14;20.63;;;13.52;;
2542;SDS011;1116;51.502;7.414;2022-12-18T21:17:51;18.70;;;12.85;;
2542;SDS011;1116;51.502;7.414;2022-12-18T21:20:25;19.60;;;14.10;;
2542;SDS011;1116;51.502;7.414;2022-12-18T21:22:56;22.15;;;14.40;;
2542;SDS011;1116;51.502;7.414;2022-12-18T21:25:43;19.80;;;13.60;;
2542;SDS011;1116;51.502;7.414;2022-12-18T21:28:20;17.67;;;12.30;;
2542;SDS011;1116;51.502;7.414;2022-12-18T21:30:51;21.00;;;14.10;;
2542;SDS011;1116;51.502;7.414;2022-12-18T21:33:22;25.50;;;15.37;;
2542;SDS011;1116;51.502;7.414;2022-12-18T21:35:55;22.38;;;13.30;;
2542;SDS011;1116;51.502;7.414;2022-12-18T21:38:27;22.98;;;14.45;;
2542;SDS011;1116;51.502;7.414;2022-12-18T21:40:59;20.10;;;14.32;;
2542;SDS011;1116;51.502;7.414;2022-12-18T21:43:35;24.35;;;14.80;;
2542;SDS011;1116;51.502;7.414;2022-12-18T21:46:20;24.13;;;14.30;;
2542;SDS011;1116;51.502;7.414;2022-12-18T21:48:51;24.13;;;15.10;;
2542;SDS011;1116;51.502;7.414;2022-12-18T21:51:24;21.60;;;12.82;;
2542;SDS011;1116;51.502;7.414;2022-12-18T21:53:56;21.85;;;14.30;;
2542;SDS011;1116;51.502;7.414;2022-12-18T21:56:41;22.85;;;14.43;;
2542;SDS011;1116;51.502;7.414;2022-12-18T21:59:13;19.55;;;13.40;;
2542;SDS011;1116;51.502;7.414;2022-12-18T22:01:48;19.90;;;12.73;;
2542;SDS011;1116;51.502;7.414;2022-12-18T22:04:21;18.98;;;13.10;;
2542;SDS011;1116;51.502;7.414;2022-12-18T22:06:58;21.55;;;13.68;;
2542;SDS011;1116;51.502;7.414;2022-12-18T22:09:31;21.27;;;14.07;;
2542;SDS011;1116;51.502;7.414;2022-12-18T22:12:02;21.58;;;13.82;;
2542;SDS011;1116;51.502;7.414;2022-12-18T22:14:33;21.63;;;13.35;;
2542;SDS011;1116;51.502;7.414;2022-12-18T22:17:04;20.90;;;13.68;;
2542;SDS011;1116;51.502;7.414;2022-12-18T22:19:37;21.20;;;13.70;;
2542;SDS011;1116;51.502;7.414;2022-12-18T22:22:12;24.20;;;14.27;;
2542;SDS011;1116;51.502;7.414;2022-12-18T22:24:43;21.00;;;13.48;;
2542;SDS011;1116;51.502;7.414;2022-12-18T22:27:14;22.92;;;13.90;;
2542;SDS011;1116;51.502;7.414;2022-12-18T22:29:44;21.35;;;13.77;;
2542;SDS011;1116;51.502;7.414;2022-12-18T22:32:28;20.85;;;13.05;;
2542;SDS011;1116;51.502;7.414;2022-12-18T22:37:45;21.02;;;14.18;;
2542;SDS011;1116;51.502;7.414;2022-12-18T22:40:16;23.70;;;14.57;;
2542;SDS011;1116;51.502;7.414;2022-12-18T22:42:52;20.45;;;13.00;;
2542;SDS011;1116;51.502;7.414;2022-12-18T22:45:23;23.58;;;14.68;;
2542;SDS011;1116;51.502;7.414;2022-12-18T22:47:56;25.25;;;15.77;;
2542;SDS011;1116;51.502;7.414;2022-12-18T22:50:27;22.30;;;14.30;;
2542;SDS011;1116;51.502;7.414;2022-12-18T22:53:03;24.77;;;14.98;;
2542;SDS011;1116;51.502;7.414;2022-12-18T22:55:34;22.77;;;14.13;;
2542;SDS011;1116;51.502;7.414;2022-12-18T22:58:09;22.15;;;13.90;;
2542;SDS011;1116;51.502;7.414;2022-12-18T23:00:41;22.85;;;14.20;;
2542;SDS011;1116;51.502;7.414;2022-12-18T23:03:12;20.80;;;14.02;;
2542;SDS011;1116;51.502;7.414;2022-12-18T23:06:00;23.13;;;14.90;;
2542;SDS011;1116;51.502;7.414;2022-12-18T23:08:34;20.60;;;14.13;;
2542;SDS011;1116;51.502;7.414;2022-12-18T23:11:06;22.85;;;13.80;;
2542;SDS011;1116;51.502;7.414;2022-12-18T23:13:37;23.38;;;13.90;;
2542;SDS011;1116;51.502;7.414;2022-12-18T23:16:10;23.80;;;14.23;;
2542;SDS011;1116;51.502;7.414;2022-12-18T23:21:51;24.40;;;15.20;;
2542;SDS011;1116;51.502;7.414;2022-12-18T23:24:27;24.85;;;15.10;;
2542;SDS011;1116;51.502;7.414;2022-12-18T23:26:59;24.83;;;15.45;;
2542;SDS011;1116;51.502;7.414;2022-12-18T23:29:34;26.17;;;15.07;;
2542;SDS011;1116;51.502;7.414;2022-12-18T23:32:05;24.13;;;15.05;;
2542;SDS011;1116;51.502;7.414;2022-12-18T23:34:37;23.02;;;15.32;;
2542;SDS011;1116;51.502;7.414;2022-12-18T23:37:08;21.88;;;15.45;;
2542;SDS011;1116;51.502;7.414;2022-12-18T23:39:41;21.13;;;14.07;;
2542;SDS011;1116;51.502;7.414;2022-12-18T23:42:12;21.48;;;14.63;;
2542;SDS011;1116;51.502;7.414;2022-12-18T23:44:47;23.27;;;15.35;;
2542;SDS011;1116;51.502;7.414;2022-12-18T23:47:17;24.42;;;14.25;;
2542;SDS011;1116;51.502;7.414;2022-12-18T23:49:48;23.75;;;14.25;;
2542;SDS011;1116;51.502;7.414;2022-12-18T23:52:20;24.90;;;14.80;;
2542;SDS011;1116;51.502;7.414;2022-12-18T23:54:54;24.27;;;14.68;;
2542;SDS011;1116;51.502;7.414;2022-12-18T23:57:25;24.83;;;15.70;;
2542;SDS011;1116;51.502;7.414;2022-12-18T23:59:58;24.95;;;15.55;;
